createdAt,value
2023-04-23T00:02:28.729Z,10.83
2023-04-23T00:05:09.087Z,10.80
2023-04-23T00:08:27.977Z,10.76
2023-04-23T00:11:06.362Z,10.69
2023-04-23T00:13:51.969Z,10.66
2023-04-23T00:16:27.330Z,10.64
2023-04-23T00:19:09.309Z,10.61
2023-04-23T00:21:49.971Z,10.57
2023-04-23T00:24:26.222Z,10.56
2023-04-23T00:27:08.735Z,10.56
2023-04-23T00:29:46.492Z,10.57
2023-04-23T00:32:18.705Z,10.55
2023-04-23T00:34:58.426Z,10.54
2023-04-23T00:37:33.318Z,10.52
2023-04-23T00:40:23.710Z,10.52
2023-04-23T00:43:00.199Z,10.52
2023-04-23T00:45:30.088Z,10.55
2023-04-23T00:48:14.885Z,10.55
2023-04-23T00:50:51.666Z,10.52
2023-04-23T00:53:36.267Z,10.40
2023-04-23T00:56:13.255Z,10.40
2023-04-23T00:58:43.402Z,10.42
2023-04-23T01:01:20.676Z,10.41
2023-04-23T01:03:52.903Z,10.38
2023-04-23T01:06:25.182Z,10.35
2023-04-23T01:08:59.191Z,10.33
2023-04-23T01:11:43.255Z,10.32
2023-04-23T01:14:13.681Z,10.29
2023-04-23T01:16:53.820Z,10.27
2023-04-23T01:19:33.860Z,10.26
2023-04-23T01:22:16.031Z,10.22
2023-04-23T01:25:07.064Z,10.12
2023-04-23T01:27:41.397Z,10.07
2023-04-23T01:30:15.269Z,10.09
2023-04-23T01:32:51.217Z,10.10
2023-04-23T01:35:31.767Z,10.09
2023-04-23T01:38:15.138Z,10.09
2023-04-23T01:40:48.747Z,10.07
2023-04-23T01:43:39.216Z,10.03
2023-04-23T01:46:15.357Z,9.99
2023-04-23T01:48:50.091Z,9.96
2023-04-23T01:51:25.117Z,9.94
2023-04-23T01:53:56.450Z,9.91
2023-04-23T01:56:30.913Z,9.82
2023-04-23T01:59:09.382Z,9.81
2023-04-23T02:01:46.861Z,9.81
2023-04-23T02:04:22.822Z,9.81
2023-04-23T02:07:11.211Z,9.81
2023-04-23T02:09:46.412Z,9.78
2023-04-23T02:12:31.802Z,9.76
2023-04-23T02:15:12.519Z,9.73
2023-04-23T02:17:52.659Z,9.71
2023-04-23T02:20:39.968Z,9.71
2023-04-23T02:23:31.364Z,9.69
2023-04-23T02:26:11.029Z,9.69
2023-04-23T02:28:59.332Z,9.67
2023-04-23T02:31:47.961Z,9.65
2023-04-23T02:34:22.893Z,9.63
2023-04-23T02:37:08.981Z,9.63
2023-04-23T02:39:43.176Z,9.62
2023-04-23T02:42:15.216Z,9.62
2023-04-23T02:44:56.480Z,9.63
2023-04-23T02:47:34.878Z,9.63
2023-04-23T02:50:10.064Z,9.61
2023-04-23T02:52:42.434Z,9.59
2023-04-23T02:55:18.722Z,9.58
2023-04-23T02:57:59.750Z,9.54
2023-04-23T03:00:36.357Z,9.51
2023-04-23T03:03:12.357Z,9.49
2023-04-23T03:05:48.273Z,9.46
2023-04-23T03:08:18.088Z,9.45
2023-04-23T03:10:55.593Z,9.43
2023-04-23T03:13:28.564Z,9.43
2023-04-23T03:16:06.777Z,9.41
2023-04-23T03:18:37.197Z,9.38
2023-04-23T03:21:10.417Z,9.37
2023-04-23T03:23:45.823Z,9.37
2023-04-23T03:26:23.088Z,9.35
2023-04-23T03:28:57.681Z,9.35
2023-04-23T03:31:32.932Z,9.31
2023-04-23T03:34:05.466Z,9.28
2023-04-23T03:36:36.532Z,9.26
2023-04-23T03:39:08.830Z,9.25
2023-04-23T03:41:57.318Z,9.23
2023-04-23T03:44:44.298Z,9.23
2023-04-23T03:47:18.724Z,9.24
2023-04-23T03:49:53.865Z,9.28
2023-04-23T03:52:33.015Z,9.34
2023-04-23T03:55:06.699Z,9.39
2023-04-23T03:57:45.061Z,9.40
2023-04-23T04:00:42.447Z,9.39
2023-04-23T04:03:12.802Z,9.41
2023-04-23T04:05:48.953Z,9.43
2023-04-23T04:08:21.250Z,9.46
2023-04-23T04:10:56.181Z,9.52
2023-04-23T04:13:28.499Z,9.60
2023-04-23T04:16:05.192Z,9.70
2023-04-23T04:18:40.230Z,9.80
2023-04-23T04:21:12.622Z,9.87
2023-04-23T04:23:49.110Z,9.96
2023-04-23T04:26:25.163Z,10.01
2023-04-23T04:29:01.192Z,10.06
2023-04-23T04:31:33.550Z,10.12
2023-04-23T04:34:09.138Z,10.19
2023-04-23T04:37:06.594Z,10.23
2023-04-23T04:39:40.039Z,10.28
2023-04-23T04:42:25.247Z,10.35
2023-04-23T04:45:20.994Z,10.45
2023-04-23T04:48:00.689Z,10.58
2023-04-23T04:50:34.368Z,10.73
2023-04-23T04:53:13.692Z,10.89
2023-04-23T04:55:53.079Z,11.12
2023-04-23T04:58:36.448Z,11.30
2023-04-23T05:01:08.424Z,11.41
2023-04-23T05:03:48.408Z,11.55
2023-04-23T05:06:34.483Z,11.66
2023-04-23T05:09:17.234Z,11.78
2023-04-23T05:12:18.258Z,11.89
2023-04-23T05:15:09.471Z,12.01
2023-04-23T05:17:51.631Z,12.11
2023-04-23T05:20:32.842Z,12.18
2023-04-23T05:23:13.633Z,12.27
2023-04-23T05:26:12.947Z,12.32
2023-04-23T05:29:01.645Z,12.39
2023-04-23T05:31:40.655Z,12.50
2023-04-23T05:34:14.366Z,12.63
2023-04-23T05:36:46.402Z,12.78
2023-04-23T05:39:22.951Z,13.00
2023-04-23T05:42:03.078Z,13.20
2023-04-23T05:44:39.695Z,13.37
2023-04-23T05:47:31.709Z,13.55
2023-04-23T05:50:08.581Z,13.79
2023-04-23T05:52:40.884Z,14.05
2023-04-23T05:55:12.283Z,14.37
2023-04-23T05:57:49.537Z,14.66
2023-04-23T06:00:30.662Z,14.95
2023-04-23T06:03:02.932Z,15.27
2023-04-23T06:05:45.363Z,15.66
2023-04-23T06:08:25.811Z,16.12
2023-04-23T06:11:04.899Z,16.59
2023-04-23T06:13:36.794Z,17.03
2023-04-23T06:16:18.962Z,17.41
2023-04-23T06:18:54.217Z,17.69
2023-04-23T06:21:36.778Z,17.86
2023-04-23T06:24:22.651Z,18.11
2023-04-23T06:26:57.865Z,18.37
2023-04-23T06:29:36.272Z,18.69
2023-04-23T06:32:09.375Z,18.90
2023-04-23T06:35:00.294Z,19.05
2023-04-23T06:37:35.057Z,19.16
2023-04-23T06:40:10.798Z,19.31
2023-04-23T06:42:44.166Z,19.64
2023-04-23T06:45:42.685Z,19.97
2023-04-23T06:48:18.827Z,20.24
2023-04-23T06:50:51.337Z,20.41
2023-04-23T06:53:41.206Z,20.48
2023-04-23T06:56:16.305Z,20.56
2023-04-23T06:58:49.895Z,20.72
2023-04-23T07:01:24.448Z,20.78
2023-04-23T07:03:56.702Z,20.90
2023-04-23T07:06:29.038Z,21.16
2023-04-23T07:09:09.445Z,21.55
2023-04-23T07:12:17.867Z,21.81
2023-04-23T07:14:49.288Z,21.95
2023-04-23T07:18:22.226Z,22.29
2023-04-23T07:22:31.901Z,22.78
2023-04-23T07:25:28.384Z,23.60
2023-04-23T07:27:58.824Z,24.00
2023-04-23T07:30:29.563Z,24.46
2023-04-23T07:33:12.499Z,24.75
2023-04-23T07:35:55.374Z,25.00
2023-04-23T07:38:31.607Z,25.29
2023-04-23T07:41:13.464Z,25.44
2023-04-23T07:43:57.021Z,25.75
2023-04-23T07:47:02.633Z,25.88
2023-04-23T07:49:38.674Z,26.00
2023-04-23T07:52:21.844Z,26.26
2023-04-23T07:54:56.477Z,26.40
2023-04-23T07:57:33.055Z,26.35
2023-04-23T08:00:24.707Z,26.32
2023-04-23T08:03:31.058Z,26.49
2023-04-23T08:06:27.785Z,26.63
2023-04-23T08:09:57.843Z,26.64
2023-04-23T08:12:49.496Z,26.26
2023-04-23T08:15:24.052Z,26.03
2023-04-23T08:17:55.750Z,25.99
2023-04-23T08:20:30.171Z,26.03
2023-04-23T08:23:00.807Z,26.02
2023-04-23T08:25:35.205Z,26.18
2023-04-23T08:28:06.496Z,26.49
2023-04-23T08:30:37.186Z,26.63
2023-04-23T08:33:21.846Z,26.83
2023-04-23T08:35:52.488Z,27.15
2023-04-23T08:38:23.117Z,27.34
2023-04-23T08:40:58.864Z,27.44
2023-04-23T08:44:01.686Z,27.60
2023-04-23T08:46:45.986Z,27.72
2023-04-23T08:49:19.342Z,27.82
2023-04-23T08:52:11.580Z,28.05
2023-04-23T08:54:57.281Z,28.34
2023-04-23T08:57:40.945Z,28.32
2023-04-23T09:04:51.327Z,28.29
2023-04-23T09:07:36.505Z,28.24
2023-04-23T09:10:23.766Z,28.09
2023-04-23T09:13:30.963Z,28.09
2023-04-23T09:16:07.578Z,28.36
2023-04-23T09:19:00.575Z,28.51
2023-04-23T09:21:40.520Z,28.68
2023-04-23T09:24:46.029Z,28.79
2023-04-23T09:27:53.989Z,29.07
2023-04-23T09:30:42.840Z,29.63
2023-04-23T09:38:32.646Z,29.84
2023-04-23T09:45:09.504Z,30.32
2023-04-23T09:48:17.179Z,30.23
2023-04-23T09:51:27.751Z,30.07
2023-04-23T09:54:47.198Z,29.95
2023-04-23T09:57:56.363Z,29.93
2023-04-23T10:00:26.520Z,29.80
2023-04-23T10:14:15.021Z,29.42
2023-04-23T10:17:04.293Z,29.36
2023-04-23T10:24:29.584Z,29.01
2023-04-23T10:32:36.245Z,28.43
2023-04-23T10:43:23.597Z,28.49
2023-04-23T11:24:17.845Z,26.16
2023-04-23T11:26:58.872Z,26.05
2023-04-23T11:29:41.570Z,25.46
2023-04-23T11:32:45.791Z,25.07
2023-04-23T11:39:56.083Z,24.64
2023-04-23T12:25:05.348Z,23.91
2023-04-23T12:28:23.231Z,23.94
2023-04-23T12:31:16.921Z,23.96
2023-04-23T12:34:22.458Z,23.98
2023-04-23T12:37:09.465Z,24.09
2023-04-23T12:39:49.724Z,24.20
2023-04-23T12:43:08.710Z,24.21
2023-04-23T12:45:50.750Z,24.27
2023-04-23T12:48:28.792Z,24.35
2023-04-23T12:51:01.784Z,24.41
2023-04-23T12:53:39.417Z,24.47
2023-04-23T12:56:21.692Z,24.50
2023-04-23T12:59:10.123Z,24.44
2023-04-23T13:02:11.113Z,24.25
2023-04-23T13:05:05.988Z,24.18
2023-04-23T13:07:55.195Z,24.09
2023-04-23T13:10:37.353Z,24.07
2023-04-23T13:14:11.357Z,24.03
2023-04-23T13:18:12.661Z,24.02
2023-04-23T13:21:04.567Z,24.02
2023-04-23T13:23:51.681Z,23.97
2023-04-23T13:26:24.884Z,23.96
2023-04-23T13:29:27.712Z,24.03
2023-04-23T13:32:52.067Z,24.13
2023-04-23T13:58:44.715Z,24.55
2023-04-23T14:02:02.427Z,24.50
2023-04-23T14:04:47.666Z,24.34
2023-04-23T14:11:01.841Z,23.51
2023-04-23T14:14:41.186Z,22.90
2023-04-23T14:21:49.101Z,21.86
2023-04-23T14:25:49.302Z,21.49
2023-04-23T14:29:23.548Z,21.22
2023-04-23T14:32:50.733Z,21.00
2023-04-23T14:35:50.850Z,20.75
2023-04-23T14:38:46.231Z,20.62
2023-04-23T14:41:42.727Z,20.47
2023-04-23T14:44:33.950Z,20.34
2023-04-23T14:47:39.158Z,20.21
2023-04-23T14:50:14.832Z,20.13
2023-04-23T14:53:02.049Z,20.13
2023-04-23T14:55:45.838Z,20.07
2023-04-23T14:58:23.987Z,20.02
2023-04-23T15:01:33.729Z,20.02
2023-04-23T15:04:22.087Z,20.04
2023-04-23T15:07:02.399Z,20.12
2023-04-23T15:09:42.994Z,20.24
2023-04-23T15:12:44.710Z,20.36
2023-04-23T15:15:44.349Z,20.48
2023-04-23T15:18:25.517Z,20.60
2023-04-23T15:21:00.875Z,20.72
2023-04-23T15:23:43.549Z,20.80
2023-04-23T15:26:26.138Z,20.85
2023-04-23T15:29:11.594Z,20.93
2023-04-23T15:31:49.228Z,20.97
2023-04-23T15:34:23.960Z,20.99
2023-04-23T15:36:56.870Z,21.01
2023-04-23T15:39:38.742Z,21.00
2023-04-23T15:42:20.400Z,21.00
2023-04-23T15:45:00.739Z,20.98
2023-04-23T15:47:38.660Z,21.00
2023-04-23T15:50:16.601Z,21.02
2023-04-23T15:52:55.403Z,21.03
2023-04-23T15:55:38.632Z,21.01
2023-04-23T15:58:24.455Z,21.01
2023-04-23T16:01:05.151Z,20.97
2023-04-23T16:03:57.647Z,20.93
2023-04-23T16:09:57.706Z,20.81
2023-04-23T16:12:35.948Z,20.82
2023-04-23T16:15:13.928Z,20.73
2023-04-23T16:18:25.876Z,20.59
2023-04-23T16:21:21.807Z,20.46
2023-04-23T16:24:16.245Z,20.32
2023-04-23T16:27:11.526Z,20.23
2023-04-23T16:30:13.133Z,20.19
2023-04-23T16:32:48.181Z,20.14
2023-04-23T16:35:28.868Z,20.07
2023-04-23T16:38:12.866Z,19.95
2023-04-23T16:41:05.301Z,19.88
2023-04-23T16:43:41.570Z,19.86
2023-04-23T16:46:25.478Z,19.87
2023-04-23T16:49:05.522Z,19.88
2023-04-23T16:51:43.807Z,19.89
2023-04-23T16:54:23.800Z,19.86
2023-04-23T16:57:14.069Z,19.81
2023-04-23T17:00:23.881Z,19.73
2023-04-23T17:02:58.655Z,19.66
2023-04-23T17:05:37.053Z,19.63
2023-04-23T17:08:10.347Z,19.60
2023-04-23T17:10:57.035Z,19.55
2023-04-23T17:14:18.550Z,19.47
2023-04-23T17:17:17.327Z,19.40
2023-04-23T17:20:19.604Z,19.39
2023-04-23T17:23:13.848Z,19.37
2023-04-23T17:26:14.335Z,19.44
2023-04-23T17:29:00.182Z,19.34
2023-04-23T17:32:02.968Z,19.25
2023-04-23T17:35:12.204Z,19.22
2023-04-23T17:38:00.283Z,19.15
2023-04-23T17:40:39.586Z,19.10
2023-04-23T17:43:14.446Z,19.07
2023-04-23T17:46:01.039Z,18.99
2023-04-23T17:48:55.315Z,18.93
2023-04-23T17:51:42.897Z,18.89
2023-04-23T17:54:27.310Z,18.87
2023-04-23T17:57:11.613Z,18.82
2023-04-23T17:59:53.198Z,18.78
2023-04-23T18:02:28.997Z,18.72
2023-04-23T18:05:09.683Z,18.69
2023-04-23T18:07:45.437Z,18.67
2023-04-23T18:10:31.224Z,18.66
2023-04-23T18:13:15.408Z,18.65
2023-04-23T18:16:08.932Z,18.61
2023-04-23T18:18:50.161Z,18.57
2023-04-23T18:21:23.344Z,18.52
2023-04-23T18:23:58.457Z,18.49
2023-04-23T18:26:37.613Z,18.46
2023-04-23T18:29:11.622Z,18.43
2023-04-23T18:31:43.657Z,18.40
2023-04-23T18:34:27.828Z,18.38
2023-04-23T18:37:08.304Z,18.30
2023-04-23T18:39:41.555Z,18.25
2023-04-23T18:42:23.965Z,18.21
2023-04-23T18:48:38.722Z,18.10
2023-04-23T18:51:17.901Z,18.06
2023-04-23T18:53:52.545Z,18.03
2023-04-23T18:56:42.879Z,18.00
2023-04-23T18:59:24.392Z,17.97
2023-04-23T19:02:34.331Z,17.95
2023-04-23T19:05:17.118Z,17.92
2023-04-23T19:08:29.138Z,17.91
2023-04-23T19:11:06.943Z,17.90
2023-04-23T19:13:56.126Z,17.90
2023-04-23T19:16:43.740Z,17.88
2023-04-23T19:19:58.547Z,17.87
2023-04-23T19:22:59.449Z,17.80
2023-04-23T19:25:49.053Z,17.78
2023-04-23T19:28:35.889Z,17.78
2023-04-23T19:31:28.430Z,17.77
2023-04-23T19:34:27.913Z,17.78
2023-04-23T19:37:14.001Z,17.75
2023-04-23T19:39:57.353Z,17.72
2023-04-23T19:42:55.581Z,17.72
2023-04-23T19:45:49.213Z,17.64
2023-04-23T19:48:40.244Z,17.58
2023-04-23T19:51:51.991Z,17.52
2023-04-23T19:54:24.786Z,17.44
2023-04-23T19:56:58.274Z,17.35
2023-04-23T19:59:32.869Z,17.28
2023-04-23T20:02:02.896Z,17.20
2023-04-23T20:04:33.856Z,17.16
2023-04-23T20:07:22.371Z,17.09
2023-04-23T20:10:26.330Z,17.00
2023-04-23T20:13:31.099Z,16.94
2023-04-23T20:17:03.226Z,16.89
2023-04-23T20:19:38.483Z,16.79
2023-04-23T20:22:17.137Z,16.79
2023-04-23T20:25:01.255Z,16.82
2023-04-23T20:27:33.635Z,16.81
2023-04-23T20:33:13.050Z,16.79
2023-04-23T20:35:54.659Z,16.80
2023-04-23T20:38:33.991Z,16.80
2023-04-23T20:41:06.842Z,16.81
2023-04-23T20:43:42.434Z,16.84
2023-04-23T20:46:17.148Z,16.88
2023-04-23T20:48:55.852Z,16.90
2023-04-23T20:51:29.015Z,16.92
2023-04-23T20:54:03.258Z,16.91
2023-04-23T20:56:41.213Z,16.87
2023-04-23T20:59:13.270Z,16.88
2023-04-23T21:01:55.530Z,16.83
2023-04-23T21:04:29.573Z,16.79
2023-04-23T21:07:21.995Z,16.71
2023-04-23T21:10:06.618Z,16.51
2023-04-23T21:13:01.981Z,16.24
2023-04-23T21:15:54.541Z,16.16
2023-04-23T21:18:28.053Z,16.17
2023-04-23T21:21:09.091Z,16.17
2023-04-23T21:23:45.147Z,16.19
2023-04-23T21:26:21.998Z,16.19
2023-04-23T21:28:55.044Z,16.16
2023-04-23T21:31:50.484Z,16.14
2023-04-23T21:34:23.709Z,16.12
2023-04-23T21:36:54.271Z,16.11
2023-04-23T21:39:43.011Z,16.10
2023-04-23T21:42:22.382Z,16.05
2023-04-23T21:45:09.009Z,16.01
2023-04-23T21:47:44.990Z,15.97
2023-04-23T21:50:20.621Z,15.95
2023-04-23T21:52:53.857Z,15.91
2023-04-23T21:55:32.120Z,15.90
2023-04-23T21:58:17.152Z,15.86
2023-04-23T22:00:49.153Z,15.81
2023-04-23T22:03:37.402Z,15.82
2023-04-23T22:06:16.672Z,15.86
2023-04-23T22:08:53.719Z,15.89
2023-04-23T22:11:48.876Z,15.87
2023-04-23T22:14:32.521Z,15.82
2023-04-23T22:17:15.617Z,15.81
2023-04-23T22:19:46.180Z,15.82
2023-04-23T22:22:17.274Z,15.84
2023-04-23T22:24:58.553Z,15.85
2023-04-23T22:27:37.068Z,15.76
2023-04-23T22:30:15.863Z,15.68
2023-04-23T22:32:50.117Z,15.60
2023-04-23T22:35:49.726Z,15.51
2023-04-23T22:38:26.536Z,15.42
2023-04-23T22:41:00.202Z,15.35
2023-04-23T22:43:35.989Z,15.31
2023-04-23T22:46:12.655Z,15.30
2023-04-23T22:48:49.826Z,15.30
2023-04-23T22:51:22.183Z,15.26
2023-04-23T22:53:54.531Z,15.31
2023-04-23T22:56:30.677Z,15.34
2023-04-23T22:59:13.691Z,15.36
2023-04-23T23:02:02.526Z,15.37
2023-04-23T23:04:41.829Z,15.38
2023-04-23T23:07:16.608Z,15.35
2023-04-23T23:09:53.653Z,15.31
2023-04-23T23:12:24.556Z,15.24
2023-04-23T23:15:00.168Z,15.18
2023-04-23T23:17:40.991Z,15.15
2023-04-23T23:20:17.504Z,15.14
2023-04-23T23:22:50.555Z,15.12
2023-04-23T23:25:26.082Z,15.11
2023-04-23T23:28:08.102Z,15.09
2023-04-23T23:30:43.730Z,15.07
2023-04-23T23:33:17.507Z,15.06
2023-04-23T23:35:51.940Z,15.04
2023-04-23T23:38:24.062Z,15.02
2023-04-23T23:41:05.074Z,15.00
2023-04-23T23:43:51.779Z,14.95
2023-04-23T23:46:24.387Z,14.91
2023-04-23T23:48:55.401Z,14.86
2023-04-23T23:51:26.196Z,14.83
2023-04-23T23:53:57.003Z,14.79
2023-04-23T23:56:29.992Z,14.77
2023-04-23T23:59:09.766Z,14.74
